sensor_id;sensor_type;location;lat;lon;timestamp;P1;durP1;ratioP1;P2;durP2;ratioP2
16320;SDS011;8269;50.990;4.494;2023-05-07T00:01:41;9.90;;;6.18;;
16320;SDS011;8269;50.990;4.494;2023-05-07T00:04:06;6.95;;;5.40;;
16320;SDS011;8269;50.990;4.494;2023-05-07T00:06:32;10.27;;;6.32;;
16320;SDS011;8269;50.990;4.494;2023-05-07T00:08:58;9.27;;;6.20;;
16320;SDS011;8269;50.990;4.494;2023-05-07T00:11:25;9.85;;;6.30;;
16320;SDS011;8269;50.990;4.494;2023-05-07T00:13:52;11.30;;;6.00;;
16320;SDS011;8269;50.990;4.494;2023-05-07T00:16:17;10.98;;;6.00;;
16320;SDS011;8269;50.990;4.494;2023-05-07T00:18:43;10.98;;;6.43;;
16320;SDS011;8269;50.990;4.494;2023-05-07T00:21:09;9.38;;;5.53;;
16320;SDS011;8269;50.990;4.494;2023-05-07T00:23:34;9.77;;;5.60;;
16320;SDS011;8269;50.990;4.494;2023-05-07T00:26:00;6.93;;;5.45;;
16320;SDS011;8269;50.990;4.494;2023-05-07T00:28:26;10.23;;;6.20;;
16320;SDS011;8269;50.990;4.494;2023-05-07T00:30:52;8.80;;;5.70;;
16320;SDS011;8269;50.990;4.494;2023-05-07T00:33:18;8.45;;;6.13;;
16320;SDS011;8269;50.990;4.494;2023-05-07T00:35:45;8.68;;;6.47;;
16320;SDS011;8269;50.990;4.494;2023-05-07T00:38:10;9.88;;;6.20;;
16320;SDS011;8269;50.990;4.494;2023-05-07T00:40:36;10.75;;;6.30;;
16320;SDS011;8269;50.990;4.494;2023-05-07T00:43:02;8.57;;;5.97;;
16320;SDS011;8269;50.990;4.494;2023-05-07T00:45:27;8.38;;;5.75;;
16320;SDS011;8269;50.990;4.494;2023-05-07T00:47:57;9.48;;;6.40;;
16320;SDS011;8269;50.990;4.494;2023-05-07T00:50:25;11.05;;;6.88;;
16320;SDS011;8269;50.990;4.494;2023-05-07T00:52:51;14.80;;;6.43;;
16320;SDS011;8269;50.990;4.494;2023-05-07T00:55:17;8.77;;;5.95;;
16320;SDS011;8269;50.990;4.494;2023-05-07T00:57:43;8.32;;;6.28;;
16320;SDS011;8269;50.990;4.494;2023-05-07T01:00:10;10.82;;;6.63;;
16320;SDS011;8269;50.990;4.494;2023-05-07T01:02:40;8.38;;;6.00;;
16320;SDS011;8269;50.990;4.494;2023-05-07T01:05:07;8.45;;;6.63;;
16320;SDS011;8269;50.990;4.494;2023-05-07T01:07:36;7.93;;;5.93;;
16320;SDS011;8269;50.990;4.494;2023-05-07T01:10:05;8.00;;;6.22;;
16320;SDS011;8269;50.990;4.494;2023-05-07T01:12:32;11.07;;;5.78;;
16320;SDS011;8269;50.990;4.494;2023-05-07T01:14:59;9.32;;;5.97;;
16320;SDS011;8269;50.990;4.494;2023-05-07T01:17:25;10.63;;;6.65;;
16320;SDS011;8269;50.990;4.494;2023-05-07T01:19:51;11.32;;;6.60;;
16320;SDS011;8269;50.990;4.494;2023-05-07T01:22:24;8.57;;;6.65;;
16320;SDS011;8269;50.990;4.494;2023-05-07T01:24:57;10.43;;;6.68;;
16320;SDS011;8269;50.990;4.494;2023-05-07T01:27:24;9.32;;;6.50;;
16320;SDS011;8269;50.990;4.494;2023-05-07T01:29:50;9.02;;;7.22;;
16320;SDS011;8269;50.990;4.494;2023-05-07T01:32:16;11.40;;;8.40;;
16320;SDS011;8269;50.990;4.494;2023-05-07T01:34:46;12.52;;;8.10;;
16320;SDS011;8269;50.990;4.494;2023-05-07T01:37:15;13.23;;;8.90;;
16320;SDS011;8269;50.990;4.494;2023-05-07T01:39:41;10.07;;;8.30;;
16320;SDS011;8269;50.990;4.494;2023-05-07T01:42:08;11.10;;;8.57;;
16320;SDS011;8269;50.990;4.494;2023-05-07T01:44:33;14.18;;;8.30;;
16320;SDS011;8269;50.990;4.494;2023-05-07T01:46:59;11.15;;;8.80;;
16320;SDS011;8269;50.990;4.494;2023-05-07T01:49:27;12.82;;;9.00;;
16320;SDS011;8269;50.990;4.494;2023-05-07T01:51:53;11.65;;;9.07;;
16320;SDS011;8269;50.990;4.494;2023-05-07T01:54:18;11.38;;;8.55;;
16320;SDS011;8269;50.990;4.494;2023-05-07T01:56:45;11.55;;;8.70;;
16320;SDS011;8269;50.990;4.494;2023-05-07T01:59:13;10.50;;;8.48;;
16320;SDS011;8269;50.990;4.494;2023-05-07T02:01:38;10.93;;;8.32;;
16320;SDS011;8269;50.990;4.494;2023-05-07T02:04:04;12.63;;;8.73;;
16320;SDS011;8269;50.990;4.494;2023-05-07T02:06:30;12.52;;;8.98;;
16320;SDS011;8269;50.990;4.494;2023-05-07T02:08:56;14.10;;;9.02;;
16320;SDS011;8269;50.990;4.494;2023-05-07T02:11:21;10.85;;;8.80;;
16320;SDS011;8269;50.990;4.494;2023-05-07T02:13:47;10.90;;;8.25;;
16320;SDS011;8269;50.990;4.494;2023-05-07T02:16:13;10.30;;;8.48;;
16320;SDS011;8269;50.990;4.494;2023-05-07T02:18:39;11.35;;;8.02;;
16320;SDS011;8269;50.990;4.494;2023-05-07T02:21:05;10.55;;;8.45;;
16320;SDS011;8269;50.990;4.494;2023-05-07T02:23:30;8.57;;;7.57;;
16320;SDS011;8269;50.990;4.494;2023-05-07T02:25:56;12.60;;;8.05;;
16320;SDS011;8269;50.990;4.494;2023-05-07T02:28:22;11.52;;;8.07;;
16320;SDS011;8269;50.990;4.494;2023-05-07T02:30:47;10.90;;;8.38;;
16320;SDS011;8269;50.990;4.494;2023-05-07T02:33:13;12.55;;;7.70;;
16320;SDS011;8269;50.990;4.494;2023-05-07T02:35:39;9.35;;;7.88;;
16320;SDS011;8269;50.990;4.494;2023-05-07T02:38:05;13.48;;;8.43;;
16320;SDS011;8269;50.990;4.494;2023-05-07T02:40:30;12.82;;;8.95;;
16320;SDS011;8269;50.990;4.494;2023-05-07T02:42:58;12.05;;;9.02;;
16320;SDS011;8269;50.990;4.494;2023-05-07T02:45:24;11.07;;;8.95;;
16320;SDS011;8269;50.990;4.494;2023-05-07T02:47:50;13.43;;;8.40;;
16320;SDS011;8269;50.990;4.494;2023-05-07T02:50:16;9.93;;;7.90;;
16320;SDS011;8269;50.990;4.494;2023-05-07T02:52:41;15.18;;;9.75;;
16320;SDS011;8269;50.990;4.494;2023-05-07T02:55:07;11.63;;;9.82;;
16320;SDS011;8269;50.990;4.494;2023-05-07T02:57:33;11.68;;;9.30;;
16320;SDS011;8269;50.990;4.494;2023-05-07T02:59:59;13.00;;;9.60;;
16320;SDS011;8269;50.990;4.494;2023-05-07T03:02:34;11.68;;;9.02;;
16320;SDS011;8269;50.990;4.494;2023-05-07T03:05:00;11.10;;;9.13;;
16320;SDS011;8269;50.990;4.494;2023-05-07T03:07:26;11.57;;;9.40;;
16320;SDS011;8269;50.990;4.494;2023-05-07T03:09:52;12.80;;;7.93;;
16320;SDS011;8269;50.990;4.494;2023-05-07T03:12:18;10.30;;;7.50;;
16320;SDS011;8269;50.990;4.494;2023-05-07T03:14:44;13.93;;;8.75;;
16320;SDS011;8269;50.990;4.494;2023-05-07T03:17:09;10.38;;;8.48;;
16320;SDS011;8269;50.990;4.494;2023-05-07T03:19:35;13.35;;;9.23;;
16320;SDS011;8269;50.990;4.494;2023-05-07T03:22:01;10.52;;;8.57;;
16320;SDS011;8269;50.990;4.494;2023-05-07T03:24:26;12.77;;;8.45;;
16320;SDS011;8269;50.990;4.494;2023-05-07T03:26:52;12.35;;;9.38;;
16320;SDS011;8269;50.990;4.494;2023-05-07T03:29:18;11.80;;;10.05;;
16320;SDS011;8269;50.990;4.494;2023-05-07T03:31:43;12.73;;;10.25;;
16320;SDS011;8269;50.990;4.494;2023-05-07T03:34:10;13.90;;;10.50;;
16320;SDS011;8269;50.990;4.494;2023-05-07T03:36:35;11.88;;;10.27;;
16320;SDS011;8269;50.990;4.494;2023-05-07T03:39:01;12.65;;;9.98;;
16320;SDS011;8269;50.990;4.494;2023-05-07T03:41:27;14.38;;;10.20;;
16320;SDS011;8269;50.990;4.494;2023-05-07T03:43:54;12.80;;;10.70;;
16320;SDS011;8269;50.990;4.494;2023-05-07T03:46:20;12.00;;;9.48;;
16320;SDS011;8269;50.990;4.494;2023-05-07T03:48:46;12.82;;;9.77;;
16320;SDS011;8269;50.990;4.494;2023-05-07T03:51:11;14.32;;;10.23;;
16320;SDS011;8269;50.990;4.494;2023-05-07T03:53:37;12.20;;;10.23;;
16320;SDS011;8269;50.990;4.494;2023-05-07T03:56:03;11.43;;;10.23;;
16320;SDS011;8269;50.990;4.494;2023-05-07T03:58:28;14.02;;;9.85;;
16320;SDS011;8269;50.990;4.494;2023-05-07T04:00:54;12.20;;;10.18;;
16320;SDS011;8269;50.990;4.494;2023-05-07T04:03:20;14.25;;;11.02;;
16320;SDS011;8269;50.990;4.494;2023-05-07T04:05:45;12.88;;;10.20;;
16320;SDS011;8269;50.990;4.494;2023-05-07T04:08:12;12.27;;;10.25;;
16320;SDS011;8269;50.990;4.494;2023-05-07T04:10:37;11.40;;;10.20;;
16320;SDS011;8269;50.990;4.494;2023-05-07T04:13:03;11.50;;;10.30;;
16320;SDS011;8269;50.990;4.494;2023-05-07T04:15:28;14.23;;;10.23;;
16320;SDS011;8269;50.990;4.494;2023-05-07T04:17:54;13.05;;;10.25;;
16320;SDS011;8269;50.990;4.494;2023-05-07T04:20:20;12.00;;;10.38;;
16320;SDS011;8269;50.990;4.494;2023-05-07T04:22:45;12.25;;;10.50;;
16320;SDS011;8269;50.990;4.494;2023-05-07T04:25:11;13.38;;;10.98;;
16320;SDS011;8269;50.990;4.494;2023-05-07T04:27:36;13.68;;;12.23;;
16320;SDS011;8269;50.990;4.494;2023-05-07T04:30:02;18.38;;;12.05;;
16320;SDS011;8269;50.990;4.494;2023-05-07T04:32:29;13.70;;;11.52;;
16320;SDS011;8269;50.990;4.494;2023-05-07T04:34:55;14.00;;;11.32;;
16320;SDS011;8269;50.990;4.494;2023-05-07T04:37:25;12.55;;;11.25;;
16320;SDS011;8269;50.990;4.494;2023-05-07T04:39:51;12.98;;;11.38;;
16320;SDS011;8269;50.990;4.494;2023-05-07T04:42:17;13.02;;;11.30;;
16320;SDS011;8269;50.990;4.494;2023-05-07T04:44:44;12.63;;;11.32;;
16320;SDS011;8269;50.990;4.494;2023-05-07T04:47:10;13.90;;;11.35;;
16320;SDS011;8269;50.990;4.494;2023-05-07T04:49:37;13.45;;;11.48;;
16320;SDS011;8269;50.990;4.494;2023-05-07T04:52:03;13.27;;;11.57;;
16320;SDS011;8269;50.990;4.494;2023-05-07T04:54:29;13.30;;;11.93;;
16320;SDS011;8269;50.990;4.494;2023-05-07T04:56:55;13.25;;;11.55;;
16320;SDS011;8269;50.990;4.494;2023-05-07T04:59:21;13.63;;;11.70;;
16320;SDS011;8269;50.990;4.494;2023-05-07T05:01:46;13.35;;;11.43;;
16320;SDS011;8269;50.990;4.494;2023-05-07T05:04:12;14.18;;;12.30;;
16320;SDS011;8269;50.990;4.494;2023-05-07T05:06:38;13.20;;;11.80;;
16320;SDS011;8269;50.990;4.494;2023-05-07T05:09:04;14.45;;;12.50;;
16320;SDS011;8269;50.990;4.494;2023-05-07T05:11:30;13.60;;;12.20;;
16320;SDS011;8269;50.990;4.494;2023-05-07T05:13:56;13.25;;;11.93;;
16320;SDS011;8269;50.990;4.494;2023-05-07T05:16:21;14.68;;;13.18;;
16320;SDS011;8269;50.990;4.494;2023-05-07T05:18:47;16.90;;;11.90;;
16320;SDS011;8269;50.990;4.494;2023-05-07T05:21:13;15.60;;;11.82;;
16320;SDS011;8269;50.990;4.494;2023-05-07T05:23:39;14.73;;;12.52;;
16320;SDS011;8269;50.990;4.494;2023-05-07T05:26:04;13.00;;;11.70;;
16320;SDS011;8269;50.990;4.494;2023-05-07T05:28:30;15.13;;;11.93;;
16320;SDS011;8269;50.990;4.494;2023-05-07T05:30:56;13.27;;;11.93;;
16320;SDS011;8269;50.990;4.494;2023-05-07T05:33:21;13.80;;;11.85;;
16320;SDS011;8269;50.990;4.494;2023-05-07T05:35:47;13.27;;;11.38;;
16320;SDS011;8269;50.990;4.494;2023-05-07T05:38:14;12.38;;;11.07;;
16320;SDS011;8269;50.990;4.494;2023-05-07T05:40:43;14.18;;;11.10;;
16320;SDS011;8269;50.990;4.494;2023-05-07T05:43:08;12.98;;;10.95;;
16320;SDS011;8269;50.990;4.494;2023-05-07T05:45:34;13.25;;;11.52;;
16320;SDS011;8269;50.990;4.494;2023-05-07T05:48:00;15.85;;;12.82;;
16320;SDS011;8269;50.990;4.494;2023-05-07T05:50:26;13.68;;;12.27;;
16320;SDS011;8269;50.990;4.494;2023-05-07T05:52:51;14.50;;;12.85;;
16320;SDS011;8269;50.990;4.494;2023-05-07T05:55:17;14.40;;;13.02;;
16320;SDS011;8269;50.990;4.494;2023-05-07T05:57:43;15.98;;;13.10;;
16320;SDS011;8269;50.990;4.494;2023-05-07T06:00:09;15.52;;;12.80;;
16320;SDS011;8269;50.990;4.494;2023-05-07T06:02:35;14.43;;;12.48;;
16320;SDS011;8269;50.990;4.494;2023-05-07T06:05:01;14.27;;;12.85;;
16320;SDS011;8269;50.990;4.494;2023-05-07T06:07:27;14.85;;;13.35;;
16320;SDS011;8269;50.990;4.494;2023-05-07T06:09:52;14.95;;;12.75;;
16320;SDS011;8269;50.990;4.494;2023-05-07T06:12:18;14.15;;;12.75;;
16320;SDS011;8269;50.990;4.494;2023-05-07T06:14:43;15.20;;;13.40;;
16320;SDS011;8269;50.990;4.494;2023-05-07T06:17:09;13.85;;;12.43;;
16320;SDS011;8269;50.990;4.494;2023-05-07T06:19:35;14.35;;;12.88;;
16320;SDS011;8269;50.990;4.494;2023-05-07T06:22:00;17.13;;;12.10;;
16320;SDS011;8269;50.990;4.494;2023-05-07T06:24:27;14.73;;;12.10;;
16320;SDS011;8269;50.990;4.494;2023-05-07T06:26:53;14.77;;;12.13;;
16320;SDS011;8269;50.990;4.494;2023-05-07T06:29:19;16.92;;;13.65;;
16320;SDS011;8269;50.990;4.494;2023-05-07T06:31:44;16.27;;;13.10;;
16320;SDS011;8269;50.990;4.494;2023-05-07T06:34:10;14.85;;;12.88;;
16320;SDS011;8269;50.990;4.494;2023-05-07T06:36:39;15.65;;;12.85;;
16320;SDS011;8269;50.990;4.494;2023-05-07T06:39:05;15.88;;;13.98;;
16320;SDS011;8269;50.990;4.494;2023-05-07T06:41:31;15.90;;;13.98;;
16320;SDS011;8269;50.990;4.494;2023-05-07T06:43:57;16.95;;;13.98;;
16320;SDS011;8269;50.990;4.494;2023-05-07T06:46:24;18.00;;;13.27;;
16320;SDS011;8269;50.990;4.494;2023-05-07T06:48:49;18.15;;;13.82;;
16320;SDS011;8269;50.990;4.494;2023-05-07T06:51:15;18.55;;;14.45;;
16320;SDS011;8269;50.990;4.494;2023-05-07T06:53:41;16.63;;;13.73;;
16320;SDS011;8269;50.990;4.494;2023-05-07T06:56:06;16.08;;;13.52;;
16320;SDS011;8269;50.990;4.494;2023-05-07T06:58:32;19.88;;;13.18;;
16320;SDS011;8269;50.990;4.494;2023-05-07T07:00:59;15.10;;;13.35;;
16320;SDS011;8269;50.990;4.494;2023-05-07T07:03:25;14.43;;;12.73;;
16320;SDS011;8269;50.990;4.494;2023-05-07T07:05:54;16.13;;;12.73;;
16320;SDS011;8269;50.990;4.494;2023-05-07T07:08:20;14.93;;;13.07;;
16320;SDS011;8269;50.990;4.494;2023-05-07T07:10:47;14.77;;;12.23;;
16320;SDS011;8269;50.990;4.494;2023-05-07T07:13:13;15.40;;;11.35;;
16320;SDS011;8269;50.990;4.494;2023-05-07T07:15:39;14.82;;;10.95;;
16320;SDS011;8269;50.990;4.494;2023-05-07T07:18:06;11.18;;;9.93;;
16320;SDS011;8269;50.990;4.494;2023-05-07T07:20:32;12.15;;;10.38;;
16320;SDS011;8269;50.990;4.494;2023-05-07T07:22:57;14.80;;;10.45;;
16320;SDS011;8269;50.990;4.494;2023-05-07T07:25:24;11.93;;;9.73;;
16320;SDS011;8269;50.990;4.494;2023-05-07T07:27:50;13.68;;;9.25;;
16320;SDS011;8269;50.990;4.494;2023-05-07T07:30:15;14.93;;;9.15;;
16320;SDS011;8269;50.990;4.494;2023-05-07T07:32:41;13.02;;;8.82;;
16320;SDS011;8269;50.990;4.494;2023-05-07T07:35:07;11.93;;;8.32;;
16320;SDS011;8269;50.990;4.494;2023-05-07T07:37:33;11.23;;;7.68;;
16320;SDS011;8269;50.990;4.494;2023-05-07T07:39:59;11.13;;;6.78;;
16320;SDS011;8269;50.990;4.494;2023-05-07T07:42:25;10.25;;;6.65;;
16320;SDS011;8269;50.990;4.494;2023-05-07T07:44:50;11.93;;;7.57;;
16320;SDS011;8269;50.990;4.494;2023-05-07T07:47:16;13.70;;;8.00;;
16320;SDS011;8269;50.990;4.494;2023-05-07T07:49:42;13.93;;;7.90;;
16320;SDS011;8269;50.990;4.494;2023-05-07T07:52:07;13.10;;;7.57;;
16320;SDS011;8269;50.990;4.494;2023-05-07T07:54:33;15.15;;;8.10;;
16320;SDS011;8269;50.990;4.494;2023-05-07T07:56:59;12.68;;;7.78;;
16320;SDS011;8269;50.990;4.494;2023-05-07T07:59:24;13.65;;;8.80;;
16320;SDS011;8269;50.990;4.494;2023-05-07T08:01:50;12.55;;;8.07;;
16320;SDS011;8269;50.990;4.494;2023-05-07T08:04:17;14.82;;;9.27;;
16320;SDS011;8269;50.990;4.494;2023-05-07T08:06:42;13.63;;;9.18;;
16320;SDS011;8269;50.990;4.494;2023-05-07T08:09:08;13.93;;;9.43;;
16320;SDS011;8269;50.990;4.494;2023-05-07T08:11:34;13.98;;;9.00;;
16320;SDS011;8269;50.990;4.494;2023-05-07T08:14:00;12.45;;;8.70;;
16320;SDS011;8269;50.990;4.494;2023-05-07T08:16:26;13.38;;;9.07;;
16320;SDS011;8269;50.990;4.494;2023-05-07T08:18:52;14.48;;;8.93;;
16320;SDS011;8269;50.990;4.494;2023-05-07T08:21:17;13.25;;;8.52;;
16320;SDS011;8269;50.990;4.494;2023-05-07T08:23:43;13.50;;;8.73;;
16320;SDS011;8269;50.990;4.494;2023-05-07T08:26:09;10.85;;;8.43;;
16320;SDS011;8269;50.990;4.494;2023-05-07T08:28:35;13.00;;;8.52;;
16320;SDS011;8269;50.990;4.494;2023-05-07T08:31:00;13.85;;;9.88;;
16320;SDS011;8269;50.990;4.494;2023-05-07T08:33:26;13.30;;;8.50;;
16320;SDS011;8269;50.990;4.494;2023-05-07T08:35:52;12.07;;;9.20;;
16320;SDS011;8269;50.990;4.494;2023-05-07T08:38:18;18.70;;;10.00;;
16320;SDS011;8269;50.990;4.494;2023-05-07T08:40:43;14.35;;;9.30;;
16320;SDS011;8269;50.990;4.494;2023-05-07T08:43:11;15.48;;;9.02;;
16320;SDS011;8269;50.990;4.494;2023-05-07T08:45:39;11.70;;;8.38;;
16320;SDS011;8269;50.990;4.494;2023-05-07T08:48:06;14.45;;;8.90;;
16320;SDS011;8269;50.990;4.494;2023-05-07T08:50:39;11.77;;;8.65;;
16320;SDS011;8269;50.990;4.494;2023-05-07T08:53:05;12.05;;;8.45;;
16320;SDS011;8269;50.990;4.494;2023-05-07T08:55:31;11.43;;;8.13;;
16320;SDS011;8269;50.990;4.494;2023-05-07T08:57:58;17.50;;;8.65;;
16320;SDS011;8269;50.990;4.494;2023-05-07T09:00:24;17.48;;;9.02;;
16320;SDS011;8269;50.990;4.494;2023-05-07T09:02:49;10.48;;;7.80;;
16320;SDS011;8269;50.990;4.494;2023-05-07T09:05:15;11.93;;;8.27;;
16320;SDS011;8269;50.990;4.494;2023-05-07T09:07:41;11.25;;;9.10;;
16320;SDS011;8269;50.990;4.494;2023-05-07T09:10:07;12.60;;;8.82;;
16320;SDS011;8269;50.990;4.494;2023-05-07T09:12:33;10.77;;;8.02;;
16320;SDS011;8269;50.990;4.494;2023-05-07T09:15:01;13.35;;;8.25;;
16320;SDS011;8269;50.990;4.494;2023-05-07T09:17:27;12.95;;;7.93;;
16320;SDS011;8269;50.990;4.494;2023-05-07T09:19:53;13.00;;;8.90;;
16320;SDS011;8269;50.990;4.494;2023-05-07T09:22:19;11.25;;;7.80;;
16320;SDS011;8269;50.990;4.494;2023-05-07T09:24:48;13.10;;;8.60;;
16320;SDS011;8269;50.990;4.494;2023-05-07T09:27:17;12.63;;;8.23;;
16320;SDS011;8269;50.990;4.494;2023-05-07T09:29:43;14.40;;;8.45;;
16320;SDS011;8269;50.990;4.494;2023-05-07T09:32:09;12.00;;;7.63;;
16320;SDS011;8269;50.990;4.494;2023-05-07T09:34:35;12.30;;;8.35;;
16320;SDS011;8269;50.990;4.494;2023-05-07T09:37:01;12.65;;;8.10;;
16320;SDS011;8269;50.990;4.494;2023-05-07T09:39:47;12.27;;;8.38;;
16320;SDS011;8269;50.990;4.494;2023-05-07T09:42:14;13.70;;;8.50;;
16320;SDS011;8269;50.990;4.494;2023-05-07T09:44:48;13.02;;;7.82;;
16320;SDS011;8269;50.990;4.494;2023-05-07T09:47:15;12.18;;;8.70;;
16320;SDS011;8269;50.990;4.494;2023-05-07T09:49:47;13.48;;;9.05;;
16320;SDS011;8269;50.990;4.494;2023-05-07T09:52:13;13.30;;;8.80;;
16320;SDS011;8269;50.990;4.494;2023-05-07T09:54:40;13.35;;;7.80;;
16320;SDS011;8269;50.990;4.494;2023-05-07T09:57:09;13.75;;;8.55;;
16320;SDS011;8269;50.990;4.494;2023-05-07T09:59:36;12.02;;;7.70;;
16320;SDS011;8269;50.990;4.494;2023-05-07T10:02:03;12.07;;;8.10;;
16320;SDS011;8269;50.990;4.494;2023-05-07T10:04:31;14.48;;;8.18;;
16320;SDS011;8269;50.990;4.494;2023-05-07T10:06:58;13.98;;;8.10;;
16320;SDS011;8269;50.990;4.494;2023-05-07T10:09:26;11.25;;;7.20;;
16320;SDS011;8269;50.990;4.494;2023-05-07T10:11:52;11.93;;;7.93;;
16320;SDS011;8269;50.990;4.494;2023-05-07T10:14:21;12.55;;;8.07;;
16320;SDS011;8269;50.990;4.494;2023-05-07T10:16:48;10.98;;;7.22;;
16320;SDS011;8269;50.990;4.494;2023-05-07T10:19:14;10.65;;;7.53;;
16320;SDS011;8269;50.990;4.494;2023-05-07T10:21:48;11.20;;;7.05;;
16320;SDS011;8269;50.990;4.494;2023-05-07T10:24:25;10.88;;;6.65;;
16320;SDS011;8269;50.990;4.494;2023-05-07T10:26:52;13.07;;;6.90;;
16320;SDS011;8269;50.990;4.494;2023-05-07T10:34:43;9.35;;;6.00;;
16320;SDS011;8269;50.990;4.494;2023-05-07T10:37:12;13.63;;;7.60;;
16320;SDS011;8269;50.990;4.494;2023-05-07T10:39:37;11.55;;;7.05;;
16320;SDS011;8269;50.990;4.494;2023-05-07T10:42:09;14.82;;;6.72;;
16320;SDS011;8269;50.990;4.494;2023-05-07T10:44:37;12.18;;;7.38;;
16320;SDS011;8269;50.990;4.494;2023-05-07T10:47:13;11.25;;;7.15;;
16320;SDS011;8269;50.990;4.494;2023-05-07T10:54:45;12.23;;;7.70;;
16320;SDS011;8269;50.990;4.494;2023-05-07T10:59:55;12.38;;;7.25;;
16320;SDS011;8269;50.990;4.494;2023-05-07T11:02:21;9.75;;;5.65;;
16320;SDS011;8269;50.990;4.494;2023-05-07T11:07:43;9.93;;;5.43;;
16320;SDS011;8269;50.990;4.494;2023-05-07T11:10:19;9.23;;;5.32;;
16320;SDS011;8269;50.990;4.494;2023-05-07T11:15:11;8.13;;;4.68;;
16320;SDS011;8269;50.990;4.494;2023-05-07T11:17:57;9.20;;;4.13;;
16320;SDS011;8269;50.990;4.494;2023-05-07T11:20:44;7.30;;;3.22;;
16320;SDS011;8269;50.990;4.494;2023-05-07T11:28:30;5.88;;;3.10;;
16320;SDS011;8269;50.990;4.494;2023-05-07T11:30:57;7.32;;;3.88;;
16320;SDS011;8269;50.990;4.494;2023-05-07T11:33:22;7.68;;;3.65;;
16320;SDS011;8269;50.990;4.494;2023-05-07T11:35:50;8.77;;;3.92;;
16320;SDS011;8269;50.990;4.494;2023-05-07T11:38:18;7.63;;;3.58;;
16320;SDS011;8269;50.990;4.494;2023-05-07T11:43:17;8.00;;;3.92;;
16320;SDS011;8269;50.990;4.494;2023-05-07T11:45:42;8.50;;;3.80;;
16320;SDS011;8269;50.990;4.494;2023-05-07T11:48:11;9.15;;;3.90;;
16320;SDS011;8269;50.990;4.494;2023-05-07T11:50:49;8.32;;;4.10;;
16320;SDS011;8269;50.990;4.494;2023-05-07T11:53:20;9.40;;;4.60;;
16320;SDS011;8269;50.990;4.494;2023-05-07T11:55:51;8.93;;;4.30;;
16320;SDS011;8269;50.990;4.494;2023-05-07T11:58:20;7.70;;;3.85;;
16320;SDS011;8269;50.990;4.494;2023-05-07T12:00:52;10.68;;;4.50;;
16320;SDS011;8269;50.990;4.494;2023-05-07T12:03:19;12.50;;;5.00;;
16320;SDS011;8269;50.990;4.494;2023-05-07T12:05:47;8.30;;;4.70;;
16320;SDS011;8269;50.990;4.494;2023-05-07T12:08:16;9.25;;;5.13;;
16320;SDS011;8269;50.990;4.494;2023-05-07T12:10:43;10.38;;;4.60;;
16320;SDS011;8269;50.990;4.494;2023-05-07T12:13:20;8.25;;;4.40;;
16320;SDS011;8269;50.990;4.494;2023-05-07T12:15:51;8.18;;;4.50;;
16320;SDS011;8269;50.990;4.494;2023-05-07T12:18:17;10.02;;;4.38;;
16320;SDS011;8269;50.990;4.494;2023-05-07T12:20:43;9.50;;;4.60;;
16320;SDS011;8269;50.990;4.494;2023-05-07T12:23:10;12.32;;;4.53;;
16320;SDS011;8269;50.990;4.494;2023-05-07T12:25:38;7.35;;;4.20;;
16320;SDS011;8269;50.990;4.494;2023-05-07T12:28:05;10.50;;;4.22;;
16320;SDS011;8269;50.990;4.494;2023-05-07T12:30:38;6.45;;;3.92;;
16320;SDS011;8269;50.990;4.494;2023-05-07T12:33:05;6.57;;;3.45;;
16320;SDS011;8269;50.990;4.494;2023-05-07T12:35:31;8.15;;;3.65;;
16320;SDS011;8269;50.990;4.494;2023-05-07T12:38:01;7.47;;;3.20;;
16320;SDS011;8269;50.990;4.494;2023-05-07T12:40:42;6.78;;;3.28;;
16320;SDS011;8269;50.990;4.494;2023-05-07T12:43:26;8.73;;;3.50;;
16320;SDS011;8269;50.990;4.494;2023-05-07T12:45:56;7.93;;;3.38;;
16320;SDS011;8269;50.990;4.494;2023-05-07T12:48:24;6.45;;;3.45;;
16320;SDS011;8269;50.990;4.494;2023-05-07T12:50:55;6.68;;;3.30;;
16320;SDS011;8269;50.990;4.494;2023-05-07T12:53:22;8.90;;;3.65;;
16320;SDS011;8269;50.990;4.494;2023-05-07T12:55:51;5.15;;;3.15;;
16320;SDS011;8269;50.990;4.494;2023-05-07T13:00:52;6.88;;;3.22;;
16320;SDS011;8269;50.990;4.494;2023-05-07T13:03:36;5.47;;;3.30;;
16320;SDS011;8269;50.990;4.494;2023-05-07T13:06:07;6.72;;;3.17;;
16320;SDS011;8269;50.990;4.494;2023-05-07T13:08:38;7.22;;;4.25;;
16320;SDS011;8269;50.990;4.494;2023-05-07T13:11:08;6.97;;;3.58;;
16320;SDS011;8269;50.990;4.494;2023-05-07T13:13:35;6.95;;;3.85;;
16320;SDS011;8269;50.990;4.494;2023-05-07T13:16:02;6.97;;;3.40;;
16320;SDS011;8269;50.990;4.494;2023-05-07T13:18:32;7.10;;;3.42;;
16320;SDS011;8269;50.990;4.494;2023-05-07T13:20:58;6.63;;;3.60;;
16320;SDS011;8269;50.990;4.494;2023-05-07T13:23:25;6.50;;;3.20;;
16320;SDS011;8269;50.990;4.494;2023-05-07T13:25:51;5.80;;;3.60;;
16320;SDS011;8269;50.990;4.494;2023-05-07T13:28:18;6.03;;;3.80;;
16320;SDS011;8269;50.990;4.494;2023-05-07T13:30:45;7.18;;;4.05;;
16320;SDS011;8269;50.990;4.494;2023-05-07T13:33:11;9.18;;;4.03;;
16320;SDS011;8269;50.990;4.494;2023-05-07T13:35:37;8.88;;;3.67;;
16320;SDS011;8269;50.990;4.494;2023-05-07T13:38:03;6.90;;;3.70;;
16320;SDS011;8269;50.990;4.494;2023-05-07T13:40:29;9.07;;;4.22;;
16320;SDS011;8269;50.990;4.494;2023-05-07T13:42:56;7.47;;;4.40;;
16320;SDS011;8269;50.990;4.494;2023-05-07T13:45:23;7.05;;;4.15;;
16320;SDS011;8269;50.990;4.494;2023-05-07T13:47:50;7.32;;;4.80;;
16320;SDS011;8269;50.990;4.494;2023-05-07T13:50:17;7.05;;;4.60;;
16320;SDS011;8269;50.990;4.494;2023-05-07T13:52:43;8.48;;;5.20;;
16320;SDS011;8269;50.990;4.494;2023-05-07T13:55:19;7.63;;;4.18;;
16320;SDS011;8269;50.990;4.494;2023-05-07T13:57:46;7.13;;;4.47;;
16320;SDS011;8269;50.990;4.494;2023-05-07T14:00:12;6.55;;;4.13;;
16320;SDS011;8269;50.990;4.494;2023-05-07T14:02:39;6.60;;;4.15;;
16320;SDS011;8269;50.990;4.494;2023-05-07T14:05:05;6.18;;;4.35;;
16320;SDS011;8269;50.990;4.494;2023-05-07T14:07:31;8.05;;;4.90;;
16320;SDS011;8269;50.990;4.494;2023-05-07T14:09:57;7.05;;;4.78;;
16320;SDS011;8269;50.990;4.494;2023-05-07T14:12:23;8.27;;;4.35;;
16320;SDS011;8269;50.990;4.494;2023-05-07T14:14:50;10.68;;;6.63;;
16320;SDS011;8269;50.990;4.494;2023-05-07T14:17:16;5.85;;;3.65;;
16320;SDS011;8269;50.990;4.494;2023-05-07T14:19:43;5.25;;;3.22;;
16320;SDS011;8269;50.990;4.494;2023-05-07T14:22:09;6.05;;;3.42;;
16320;SDS011;8269;50.990;4.494;2023-05-07T14:24:34;4.55;;;2.95;;
16320;SDS011;8269;50.990;4.494;2023-05-07T14:27:01;6.15;;;2.90;;
16320;SDS011;8269;50.990;4.494;2023-05-07T14:29:27;6.35;;;3.20;;
16320;SDS011;8269;50.990;4.494;2023-05-07T14:31:52;5.45;;;3.20;;
16320;SDS011;8269;50.990;4.494;2023-05-07T14:34:18;5.45;;;3.55;;
16320;SDS011;8269;50.990;4.494;2023-05-07T14:36:44;6.60;;;3.60;;
16320;SDS011;8269;50.990;4.494;2023-05-07T14:39:09;6.10;;;3.78;;
16320;SDS011;8269;50.990;4.494;2023-05-07T14:41:35;6.22;;;3.90;;
16320;SDS011;8269;50.990;4.494;2023-05-07T14:44:01;5.90;;;4.10;;
16320;SDS011;8269;50.990;4.494;2023-05-07T14:46:28;5.70;;;3.53;;
16320;SDS011;8269;50.990;4.494;2023-05-07T14:48:55;5.28;;;4.07;;
16320;SDS011;8269;50.990;4.494;2023-05-07T14:51:22;12.35;;;3.92;;
16320;SDS011;8269;50.990;4.494;2023-05-07T14:53:49;7.00;;;4.05;;
16320;SDS011;8269;50.990;4.494;2023-05-07T14:56:15;5.85;;;3.63;;
16320;SDS011;8269;50.990;4.494;2023-05-07T14:58:42;7.32;;;3.92;;
16320;SDS011;8269;50.990;4.494;2023-05-07T15:01:08;6.00;;;4.10;;
16320;SDS011;8269;50.990;4.494;2023-05-07T15:03:34;6.75;;;3.97;;
16320;SDS011;8269;50.990;4.494;2023-05-07T15:05:59;7.40;;;4.40;;
16320;SDS011;8269;50.990;4.494;2023-05-07T15:08:25;6.75;;;4.05;;
16320;SDS011;8269;50.990;4.494;2023-05-07T15:10:51;5.80;;;4.25;;
16320;SDS011;8269;50.990;4.494;2023-05-07T15:13:17;6.93;;;3.97;;
16320;SDS011;8269;50.990;4.494;2023-05-07T15:15:43;7.75;;;4.10;;